sensor_id;sensor_type;location;lat;lon;timestamp;temperature;humidity
1137;DHT22;557;48.466;7.950;2022-10-03T00:00:35;13.40;99.90
1137;DHT22;557;48.466;7.950;2022-10-03T00:03:32;13.30;99.90
1137;DHT22;557;48.466;7.950;2022-10-03T00:06:29;13.30;99.90
1137;DHT22;557;48.466;7.950;2022-10-03T00:09:34;13.30;99.90
1137;DHT22;557;48.466;7.950;2022-10-03T00:12:37;13.20;99.90
1137;DHT22;557;48.466;7.950;2022-10-03T00:15:37;13.10;99.90
1137;DHT22;557;48.466;7.950;2022-10-03T00:18:34;13.10;99.90
1137;DHT22;557;48.466;7.950;2022-10-03T00:21:37;13.00;99.90
1137;DHT22;557;48.466;7.950;2022-10-03T00:24:33;13.00;99.90
1137;DHT22;557;48.466;7.950;2022-10-03T00:27:30;12.90;99.90
1137;DHT22;557;48.466;7.950;2022-10-03T00:30:18;12.80;99.90
1137;DHT22;557;48.466;7.950;2022-10-03T00:33:13;12.80;99.90
1137;DHT22;557;48.466;7.950;2022-10-03T00:36:06;12.80;99.90
1137;DHT22;557;48.466;7.950;2022-10-03T00:45:53;12.80;99.90
1137;DHT22;557;48.466;7.950;2022-10-03T00:49:21;12.80;99.90
1137;DHT22;557;48.466;7.950;2022-10-03T00:52:28;12.80;99.90
1137;DHT22;557;48.466;7.950;2022-10-03T00:55:22;12.80;99.90
1137;DHT22;557;48.466;7.950;2022-10-03T00:58:24;12.70;99.90
1137;DHT22;557;48.466;7.950;2022-10-03T01:01:22;12.60;99.90
1137;DHT22;557;48.466;7.950;2022-10-03T01:04:29;12.60;99.90
1137;DHT22;557;48.466;7.950;2022-10-03T01:07:35;12.60;99.90
1137;DHT22;557;48.466;7.950;2022-10-03T01:10:32;12.60;99.90
1137;DHT22;557;48.466;7.950;2022-10-03T01:13:39;12.60;99.90
1137;DHT22;557;48.466;7.950;2022-10-03T01:16:35;12.70;99.90
1137;DHT22;557;48.466;7.950;2022-10-03T01:19:58;12.70;99.90
1137;DHT22;557;48.466;7.950;2022-10-03T01:23:06;12.70;99.90
1137;DHT22;557;48.466;7.950;2022-10-03T01:26:04;12.70;99.90
1137;DHT22;557;48.466;7.950;2022-10-03T01:28:57;12.60;99.90
1137;DHT22;557;48.466;7.950;2022-10-03T01:32:04;12.70;99.90
1137;DHT22;557;48.466;7.950;2022-10-03T01:34:59;12.70;99.90
1137;DHT22;557;48.466;7.950;2022-10-03T01:37:59;12.70;99.90
1137;DHT22;557;48.466;7.950;2022-10-03T01:40:54;12.80;99.90
1137;DHT22;557;48.466;7.950;2022-10-03T01:43:47;12.70;99.90
1137;DHT22;557;48.466;7.950;2022-10-03T01:46:37;12.70;99.90
1137;DHT22;557;48.466;7.950;2022-10-03T01:49:28;12.70;99.90
1137;DHT22;557;48.466;7.950;2022-10-03T01:52:22;12.70;99.90
1137;DHT22;557;48.466;7.950;2022-10-03T01:55:20;12.70;99.90
1137;DHT22;557;48.466;7.950;2022-10-03T01:58:11;12.70;99.90
1137;DHT22;557;48.466;7.950;2022-10-03T02:01:03;12.70;99.90
1137;DHT22;557;48.466;7.950;2022-10-03T02:03:58;12.70;99.90
1137;DHT22;557;48.466;7.950;2022-10-03T02:06:52;12.70;99.90
1137;DHT22;557;48.466;7.950;2022-10-03T02:09:52;12.70;99.90
1137;DHT22;557;48.466;7.950;2022-10-03T02:12:51;12.70;99.90
1137;DHT22;557;48.466;7.950;2022-10-03T02:15:50;12.60;99.90
1137;DHT22;557;48.466;7.950;2022-10-03T02:18:42;12.70;99.90
1137;DHT22;557;48.466;7.950;2022-10-03T02:21:46;12.70;99.90
1137;DHT22;557;48.466;7.950;2022-10-03T02:24:45;12.60;99.90
1137;DHT22;557;48.466;7.950;2022-10-03T02:34:17;12.50;99.90
1137;DHT22;557;48.466;7.950;2022-10-03T02:40:45;12.50;99.90
1137;DHT22;557;48.466;7.950;2022-10-03T02:44:12;12.40;99.90
1137;DHT22;557;48.466;7.950;2022-10-03T02:47:31;12.40;99.90
1137;DHT22;557;48.466;7.950;2022-10-03T03:04:22;12.30;99.90
1137;DHT22;557;48.466;7.950;2022-10-03T03:07:34;12.30;99.90
1137;DHT22;557;48.466;7.950;2022-10-03T03:17:16;12.20;99.90
1137;DHT22;557;48.466;7.950;2022-10-03T03:23:43;12.30;99.90
1137;DHT22;557;48.466;7.950;2022-10-03T03:29:50;12.20;99.90
1137;DHT22;557;48.466;7.950;2022-10-03T03:32:51;12.20;99.90
1137;DHT22;557;48.466;7.950;2022-10-03T03:35:52;12.20;99.90
1137;DHT22;557;48.466;7.950;2022-10-03T03:38:45;12.20;99.90
1137;DHT22;557;48.466;7.950;2022-10-03T03:41:45;12.20;99.90
1137;DHT22;557;48.466;7.950;2022-10-03T03:44:50;12.20;99.90
1137;DHT22;557;48.466;7.950;2022-10-03T03:48:02;12.20;99.90
1137;DHT22;557;48.466;7.950;2022-10-03T03:51:06;12.10;99.90
1137;DHT22;557;48.466;7.950;2022-10-03T04:00:29;12.00;99.90
1137;DHT22;557;48.466;7.950;2022-10-03T04:03:37;12.00;99.90
1137;DHT22;557;48.466;7.950;2022-10-03T04:06:35;12.00;99.90
1137;DHT22;557;48.466;7.950;2022-10-03T04:13:03;12.10;99.90
1137;DHT22;557;48.466;7.950;2022-10-03T04:16:04;12.00;99.90
1137;DHT22;557;48.466;7.950;2022-10-03T04:18:59;12.00;99.90
1137;DHT22;557;48.466;7.950;2022-10-03T04:22:13;12.00;99.90
1137;DHT22;557;48.466;7.950;2022-10-03T04:25:27;12.10;99.90
1137;DHT22;557;48.466;7.950;2022-10-03T04:28:29;12.10;99.90
1137;DHT22;557;48.466;7.950;2022-10-03T04:31:33;12.00;99.90
1137;DHT22;557;48.466;7.950;2022-10-03T04:34:34;12.00;99.90
1137;DHT22;557;48.466;7.950;2022-10-03T04:37:26;12.00;99.90
1137;DHT22;557;48.466;7.950;2022-10-03T04:40:23;12.00;99.90
1137;DHT22;557;48.466;7.950;2022-10-03T04:43:14;12.00;99.90
1137;DHT22;557;48.466;7.950;2022-10-03T04:46:22;11.90;99.90
1137;DHT22;557;48.466;7.950;2022-10-03T04:49:19;11.90;99.90
1137;DHT22;557;48.466;7.950;2022-10-03T04:52:17;11.90;99.90
1137;DHT22;557;48.466;7.950;2022-10-03T04:55:06;11.90;99.90
1137;DHT22;557;48.466;7.950;2022-10-03T04:58:06;11.90;99.90
1137;DHT22;557;48.466;7.950;2022-10-03T05:01:02;11.90;99.90
1137;DHT22;557;48.466;7.950;2022-10-03T05:04:00;11.90;99.90
1137;DHT22;557;48.466;7.950;2022-10-03T05:06:58;11.90;99.90
1137;DHT22;557;48.466;7.950;2022-10-03T05:09:51;11.90;99.90
1137;DHT22;557;48.466;7.950;2022-10-03T05:12:45;11.80;99.90
1137;DHT22;557;48.466;7.950;2022-10-03T05:15:35;11.90;99.90
1137;DHT22;557;48.466;7.950;2022-10-03T05:18:31;11.80;99.90
1137;DHT22;557;48.466;7.950;2022-10-03T05:21:26;11.80;99.90
1137;DHT22;557;48.466;7.950;2022-10-03T05:24:21;11.80;99.90
1137;DHT22;557;48.466;7.950;2022-10-03T05:27:28;11.70;99.90
1137;DHT22;557;48.466;7.950;2022-10-03T05:30:28;11.70;99.90
1137;DHT22;557;48.466;7.950;2022-10-03T05:33:26;11.60;99.90
1137;DHT22;557;48.466;7.950;2022-10-03T05:36:20;11.60;99.90
1137;DHT22;557;48.466;7.950;2022-10-03T05:39:36;11.60;99.90
1137;DHT22;557;48.466;7.950;2022-10-03T05:42:36;11.60;99.90
1137;DHT22;557;48.466;7.950;2022-10-03T05:45:27;11.60;99.90
1137;DHT22;557;48.466;7.950;2022-10-03T05:48:28;11.60;99.90
1137;DHT22;557;48.466;7.950;2022-10-03T05:51:42;11.60;99.90
1137;DHT22;557;48.466;7.950;2022-10-03T05:54:58;11.60;99.90
1137;DHT22;557;48.466;7.950;2022-10-03T05:57:59;11.50;99.90
1137;DHT22;557;48.466;7.950;2022-10-03T06:01:02;11.50;99.90
1137;DHT22;557;48.466;7.950;2022-10-03T06:07:17;11.50;99.90
1137;DHT22;557;48.466;7.950;2022-10-03T06:10:40;11.60;99.90
1137;DHT22;557;48.466;7.950;2022-10-03T06:13:40;11.50;99.90
1137;DHT22;557;48.466;7.950;2022-10-03T06:16:36;11.50;99.90
1137;DHT22;557;48.466;7.950;2022-10-03T06:19:35;11.50;99.90
1137;DHT22;557;48.466;7.950;2022-10-03T06:22:38;11.50;99.90
1137;DHT22;557;48.466;7.950;2022-10-03T06:25:52;11.50;99.90
1137;DHT22;557;48.466;7.950;2022-10-03T06:32:39;11.60;99.90
1137;DHT22;557;48.466;7.950;2022-10-03T06:36:17;11.60;99.90
1137;DHT22;557;48.466;7.950;2022-10-03T06:39:39;11.70;99.90
1137;DHT22;557;48.466;7.950;2022-10-03T06:42:46;11.70;99.90
1137;DHT22;557;48.466;7.950;2022-10-03T06:46:02;11.70;99.90
1137;DHT22;557;48.466;7.950;2022-10-03T06:49:12;11.70;99.90
1137;DHT22;557;48.466;7.950;2022-10-03T06:59:24;11.70;99.90
1137;DHT22;557;48.466;7.950;2022-10-03T07:02:55;11.70;99.90
1137;DHT22;557;48.466;7.950;2022-10-03T07:06:11;11.70;99.90
1137;DHT22;557;48.466;7.950;2022-10-03T07:12:57;11.80;99.90
1137;DHT22;557;48.466;7.950;2022-10-03T07:16:20;11.70;99.90
1137;DHT22;557;48.466;7.950;2022-10-03T07:19:26;11.70;99.90
1137;DHT22;557;48.466;7.950;2022-10-03T07:22:44;11.70;99.90
1137;DHT22;557;48.466;7.950;2022-10-03T07:26:06;11.70;99.90
1137;DHT22;557;48.466;7.950;2022-10-03T07:29:15;11.80;99.90
1137;DHT22;557;48.466;7.950;2022-10-03T07:32:22;11.80;99.90
1137;DHT22;557;48.466;7.950;2022-10-03T07:35:42;11.80;99.90
1137;DHT22;557;48.466;7.950;2022-10-03T07:42:24;11.90;99.90
1137;DHT22;557;48.466;7.950;2022-10-03T07:45:31;11.90;99.90
1137;DHT22;557;48.466;7.950;2022-10-03T07:48:43;11.90;99.90
1137;DHT22;557;48.466;7.950;2022-10-03T07:51:39;11.90;99.90
1137;DHT22;557;48.466;7.950;2022-10-03T07:54:49;11.90;99.90
1137;DHT22;557;48.466;7.950;2022-10-03T07:58:06;12.00;99.90
1137;DHT22;557;48.466;7.950;2022-10-03T08:01:16;12.00;99.90
1137;DHT22;557;48.466;7.950;2022-10-03T08:07:46;12.10;99.90
1137;DHT22;557;48.466;7.950;2022-10-03T08:11:03;12.30;99.90
1137;DHT22;557;48.466;7.950;2022-10-03T08:14:03;12.30;99.90
1137;DHT22;557;48.466;7.950;2022-10-03T08:17:19;12.30;99.90
1137;DHT22;557;48.466;7.950;2022-10-03T08:20:40;12.40;99.90
1137;DHT22;557;48.466;7.950;2022-10-03T08:24:06;12.40;99.90
1137;DHT22;557;48.466;7.950;2022-10-03T08:27:18;12.50;99.90
1137;DHT22;557;48.466;7.950;2022-10-03T08:30:25;12.60;99.90
1137;DHT22;557;48.466;7.950;2022-10-03T08:33:27;12.60;99.90
1137;DHT22;557;48.466;7.950;2022-10-03T08:36:39;12.80;99.90
1137;DHT22;557;48.466;7.950;2022-10-03T08:39:45;12.90;99.90
1137;DHT22;557;48.466;7.950;2022-10-03T08:43:05;13.00;99.90
1137;DHT22;557;48.466;7.950;2022-10-03T08:46:07;13.00;99.90
1137;DHT22;557;48.466;7.950;2022-10-03T08:49:02;13.10;99.90
1137;DHT22;557;48.466;7.950;2022-10-03T08:52:01;13.10;99.90
1137;DHT22;557;48.466;7.950;2022-10-03T08:58:27;13.10;99.90
1137;DHT22;557;48.466;7.950;2022-10-03T09:01:33;13.10;99.90
1137;DHT22;557;48.466;7.950;2022-10-03T09:14:41;13.10;99.90
1137;DHT22;557;48.466;7.950;2022-10-03T09:18:08;13.20;99.90
1137;DHT22;557;48.466;7.950;2022-10-03T09:25:01;13.20;99.90
1137;DHT22;557;48.466;7.950;2022-10-03T09:28:11;13.30;99.90
1137;DHT22;557;48.466;7.950;2022-10-03T09:31:12;13.30;99.90
1137;DHT22;557;48.466;7.950;2022-10-03T09:34:39;13.40;99.90
1137;DHT22;557;48.466;7.950;2022-10-03T09:37:46;13.70;99.90
1137;DHT22;557;48.466;7.950;2022-10-03T09:44:38;14.10;99.90
1137;DHT22;557;48.466;7.950;2022-10-03T09:48:08;14.40;99.90
1137;DHT22;557;48.466;7.950;2022-10-03T09:51:15;14.70;99.90
1137;DHT22;557;48.466;7.950;2022-10-03T09:54:24;15.10;99.90
1137;DHT22;557;48.466;7.950;2022-10-03T09:57:49;15.40;99.90
1137;DHT22;557;48.466;7.950;2022-10-03T10:01:15;15.30;73.50
1137;DHT22;557;48.466;7.950;2022-10-03T10:08:08;15.20;74.00
1137;DHT22;557;48.466;7.950;2022-10-03T10:11:16;15.30;41.20
1137;DHT22;557;48.466;7.950;2022-10-03T10:14:34;15.30;38.20
1137;DHT22;557;48.466;7.950;2022-10-03T10:28:05;15.00;81.00
1137;DHT22;557;48.466;7.950;2022-10-03T10:38:23;15.80;1.00
1137;DHT22;557;48.466;7.950;2022-10-03T10:41:36;15.80;21.70
1137;DHT22;557;48.466;7.950;2022-10-03T10:48:59;16.40;1.00
1137;DHT22;557;48.466;7.950;2022-10-03T10:52:11;16.60;1.00
1137;DHT22;557;48.466;7.950;2022-10-03T11:03:01;16.70;1.00
1137;DHT22;557;48.466;7.950;2022-10-03T11:06:47;17.40;1.00
1137;DHT22;557;48.466;7.950;2022-10-03T11:09:53;17.90;99.90
1137;DHT22;557;48.466;7.950;2022-10-03T11:13:34;17.90;89.80
1137;DHT22;557;48.466;7.950;2022-10-03T11:20:24;18.50;99.90
1137;DHT22;557;48.466;7.950;2022-10-03T11:23:41;18.90;99.90
1137;DHT22;557;48.466;7.950;2022-10-03T11:30:21;17.80;13.40
1137;DHT22;557;48.466;7.950;2022-10-03T11:37:09;17.70;1.00
1137;DHT22;557;48.466;7.950;2022-10-03T11:47:17;19.40;99.90
1137;DHT22;557;48.466;7.950;2022-10-03T11:50:26;19.70;1.00
1137;DHT22;557;48.466;7.950;2022-10-03T11:53:21;20.00;1.00
1137;DHT22;557;48.466;7.950;2022-10-03T11:56:42;20.30;99.90
1137;DHT22;557;48.466;7.950;2022-10-03T12:02:59;21.00;1.00
1137;DHT22;557;48.466;7.950;2022-10-03T12:05:52;20.30;1.00
1137;DHT22;557;48.466;7.950;2022-10-03T12:09:14;19.50;70.80
1137;DHT22;557;48.466;7.950;2022-10-03T12:12:07;19.40;99.90
1137;DHT22;557;48.466;7.950;2022-10-03T12:14:59;19.90;1.00
1137;DHT22;557;48.466;7.950;2022-10-03T12:17:53;20.20;1.00
1137;DHT22;557;48.466;7.950;2022-10-03T12:21:04;19.80;1.00
1137;DHT22;557;48.466;7.950;2022-10-03T12:27:06;18.90;1.00
1137;DHT22;557;48.466;7.950;2022-10-03T12:29:58;18.40;1.00
1137;DHT22;557;48.466;7.950;2022-10-03T12:32:55;19.00;99.90
1137;DHT22;557;48.466;7.950;2022-10-03T12:35:51;20.10;99.90
1137;DHT22;557;48.466;7.950;2022-10-03T12:38:57;20.90;1.00
1137;DHT22;557;48.466;7.950;2022-10-03T12:41:56;21.50;1.00
1137;DHT22;557;48.466;7.950;2022-10-03T12:44:53;21.90;1.00
1137;DHT22;557;48.466;7.950;2022-10-03T12:47:56;22.50;99.90
1137;DHT22;557;48.466;7.950;2022-10-03T12:50:46;22.90;99.90
1137;DHT22;557;48.466;7.950;2022-10-03T12:53:48;22.80;99.90
1137;DHT22;557;48.466;7.950;2022-10-03T12:56:43;23.00;99.90
1137;DHT22;557;48.466;7.950;2022-10-03T12:59:35;23.00;99.90
1137;DHT22;557;48.466;7.950;2022-10-03T13:02:29;23.10;99.90
1137;DHT22;557;48.466;7.950;2022-10-03T13:05:35;23.50;99.90
1137;DHT22;557;48.466;7.950;2022-10-03T13:08:43;24.10;99.90
1137;DHT22;557;48.466;7.950;2022-10-03T13:11:39;24.10;99.90
1137;DHT22;557;48.466;7.950;2022-10-03T13:14:40;22.90;99.90
1137;DHT22;557;48.466;7.950;2022-10-03T13:17:36;22.90;99.90
1137;DHT22;557;48.466;7.950;2022-10-03T13:20:27;22.50;99.90
1137;DHT22;557;48.466;7.950;2022-10-03T13:23:21;22.10;99.90
1137;DHT22;557;48.466;7.950;2022-10-03T13:26:12;22.40;99.90
1137;DHT22;557;48.466;7.950;2022-10-03T13:29:11;23.30;99.90
1137;DHT22;557;48.466;7.950;2022-10-03T13:32:08;24.00;99.90
1137;DHT22;557;48.466;7.950;2022-10-03T13:35:03;24.40;99.90
1137;DHT22;557;48.466;7.950;2022-10-03T13:38:35;24.30;99.90
1137;DHT22;557;48.466;7.950;2022-10-03T13:41:29;23.10;99.90
1137;DHT22;557;48.466;7.950;2022-10-03T13:44:19;22.90;99.90
1137;DHT22;557;48.466;7.950;2022-10-03T13:47:20;23.30;99.90
1137;DHT22;557;48.466;7.950;2022-10-03T13:50:16;24.00;99.90
1137;DHT22;557;48.466;7.950;2022-10-03T13:53:05;24.20;99.90
1137;DHT22;557;48.466;7.950;2022-10-03T13:55:54;24.40;99.90
1137;DHT22;557;48.466;7.950;2022-10-03T13:58:48;24.60;99.90
1137;DHT22;557;48.466;7.950;2022-10-03T14:01:44;24.70;99.90
1137;DHT22;557;48.466;7.950;2022-10-03T14:05:06;24.60;99.90
1137;DHT22;557;48.466;7.950;2022-10-03T14:08:00;24.20;99.90
1137;DHT22;557;48.466;7.950;2022-10-03T14:11:09;24.30;99.90
1137;DHT22;557;48.466;7.950;2022-10-03T14:14:29;24.30;99.90
1137;DHT22;557;48.466;7.950;2022-10-03T14:17:23;24.00;99.90
1137;DHT22;557;48.466;7.950;2022-10-03T14:20:21;24.00;99.90
1137;DHT22;557;48.466;7.950;2022-10-03T14:23:18;23.10;99.90
1137;DHT22;557;48.466;7.950;2022-10-03T14:26:12;21.90;99.90
1137;DHT22;557;48.466;7.950;2022-10-03T14:29:06;21.50;99.90
1137;DHT22;557;48.466;7.950;2022-10-03T14:32:00;21.80;99.90
1137;DHT22;557;48.466;7.950;2022-10-03T14:34:52;22.40;99.90
1137;DHT22;557;48.466;7.950;2022-10-03T14:37:44;23.10;99.90
1137;DHT22;557;48.466;7.950;2022-10-03T14:40:37;23.50;99.90
1137;DHT22;557;48.466;7.950;2022-10-03T14:43:34;23.60;99.90
1137;DHT22;557;48.466;7.950;2022-10-03T14:46:25;23.40;99.90
1137;DHT22;557;48.466;7.950;2022-10-03T14:49:18;23.40;99.90
1137;DHT22;557;48.466;7.950;2022-10-03T14:52:07;23.30;99.90
1137;DHT22;557;48.466;7.950;2022-10-03T14:54:58;23.10;99.90
1137;DHT22;557;48.466;7.950;2022-10-03T14:57:51;22.60;99.90
1137;DHT22;557;48.466;7.950;2022-10-03T15:00:41;22.40;99.90
1137;DHT22;557;48.466;7.950;2022-10-03T15:03:32;22.10;99.90
1137;DHT22;557;48.466;7.950;2022-10-03T15:06:32;21.60;99.90
1137;DHT22;557;48.466;7.950;2022-10-03T15:09:24;21.40;99.90
1137;DHT22;557;48.466;7.950;2022-10-03T15:12:15;21.20;99.90
1137;DHT22;557;48.466;7.950;2022-10-03T15:15:06;21.10;99.90
1137;DHT22;557;48.466;7.950;2022-10-03T15:17:56;20.80;99.90
1137;DHT22;557;48.466;7.950;2022-10-03T15:20:44;20.70;99.90
1137;DHT22;557;48.466;7.950;2022-10-03T15:23:33;20.50;99.90
1137;DHT22;557;48.466;7.950;2022-10-03T15:26:22;20.30;99.90
1137;DHT22;557;48.466;7.950;2022-10-03T15:29:14;20.30;99.90
1137;DHT22;557;48.466;7.950;2022-10-03T15:32:03;20.10;99.90
1137;DHT22;557;48.466;7.950;2022-10-03T15:34:56;19.90;99.90
1137;DHT22;557;48.466;7.950;2022-10-03T15:37:44;19.80;99.90
1137;DHT22;557;48.466;7.950;2022-10-03T15:40:31;19.60;99.90
1137;DHT22;557;48.466;7.950;2022-10-03T15:43:29;19.60;99.90
1137;DHT22;557;48.466;7.950;2022-10-03T15:46:31;19.50;99.90
1137;DHT22;557;48.466;7.950;2022-10-03T15:49:24;19.50;99.90
1137;DHT22;557;48.466;7.950;2022-10-03T15:52:15;19.40;99.90
1137;DHT22;557;48.466;7.950;2022-10-03T15:55:03;19.40;99.90
1137;DHT22;557;48.466;7.950;2022-10-03T15:57:52;19.20;99.90
1137;DHT22;557;48.466;7.950;2022-10-03T16:00:40;19.00;99.90
1137;DHT22;557;48.466;7.950;2022-10-03T16:03:28;18.70;99.90
1137;DHT22;557;48.466;7.950;2022-10-03T16:06:20;18.50;99.90
1137;DHT22;557;48.466;7.950;2022-10-03T16:09:12;18.20;99.90
1137;DHT22;557;48.466;7.950;2022-10-03T16:12:12;17.90;99.90
1137;DHT22;557;48.466;7.950;2022-10-03T16:15:18;17.60;99.90
1137;DHT22;557;48.466;7.950;2022-10-03T16:18:09;17.40;99.90
1137;DHT22;557;48.466;7.950;2022-10-03T16:20:58;17.40;99.90
1137;DHT22;557;48.466;7.950;2022-10-03T16:23:47;17.30;1.00
1137;DHT22;557;48.466;7.950;2022-10-03T16:26:47;17.20;1.00
1137;DHT22;557;48.466;7.950;2022-10-03T16:29:35;16.80;1.00
1137;DHT22;557;48.466;7.950;2022-10-03T16:32:24;16.50;1.00
1137;DHT22;557;48.466;7.950;2022-10-03T16:35:33;16.30;99.90
1137;DHT22;557;48.466;7.950;2022-10-03T16:38:21;16.00;99.90
1137;DHT22;557;48.466;7.950;2022-10-03T16:41:16;15.80;1.00
1137;DHT22;557;48.466;7.950;2022-10-03T16:44:05;15.60;9.30
1137;DHT22;557;48.466;7.950;2022-10-03T16:46:56;15.50;99.90
1137;DHT22;557;48.466;7.950;2022-10-03T16:49:48;15.40;1.00
1137;DHT22;557;48.466;7.950;2022-10-03T16:52:56;15.20;99.90
1137;DHT22;557;48.466;7.950;2022-10-03T16:55:46;15.10;1.00
1137;DHT22;557;48.466;7.950;2022-10-03T16:58:38;15.00;1.00
1137;DHT22;557;48.466;7.950;2022-10-03T17:01:29;14.90;1.00
1137;DHT22;557;48.466;7.950;2022-10-03T17:04:21;14.70;1.00
1137;DHT22;557;48.466;7.950;2022-10-03T17:07:13;14.60;1.00
1137;DHT22;557;48.466;7.950;2022-10-03T17:09:59;14.40;99.90
1137;DHT22;557;48.466;7.950;2022-10-03T17:12:45;14.30;1.00
1137;DHT22;557;48.466;7.950;2022-10-03T17:15:43;14.20;1.00
1137;DHT22;557;48.466;7.950;2022-10-03T17:18:37;14.10;1.00
1137;DHT22;557;48.466;7.950;2022-10-03T17:21:26;14.00;1.00
1137;DHT22;557;48.466;7.950;2022-10-03T17:24:17;13.90;1.00
1137;DHT22;557;48.466;7.950;2022-10-03T17:27:12;13.80;1.00
1137;DHT22;557;48.466;7.950;2022-10-03T17:30:02;13.70;1.00
1137;DHT22;557;48.466;7.950;2022-10-03T17:32:55;13.60;1.00
1137;DHT22;557;48.466;7.950;2022-10-03T17:35:50;13.60;1.00
1137;DHT22;557;48.466;7.950;2022-10-03T17:38:43;13.50;1.00
1137;DHT22;557;48.466;7.950;2022-10-03T17:41:36;13.40;6.00
1137;DHT22;557;48.466;7.950;2022-10-03T17:44:33;13.30;2.30
1137;DHT22;557;48.466;7.950;2022-10-03T17:47:23;13.20;6.20
1137;DHT22;557;48.466;7.950;2022-10-03T17:50:14;13.20;24.40
1137;DHT22;557;48.466;7.950;2022-10-03T17:53:03;13.20;29.30
1137;DHT22;557;48.466;7.950;2022-10-03T17:55:54;13.10;23.40
1137;DHT22;557;48.466;7.950;2022-10-03T17:58:43;13.00;53.50
1137;DHT22;557;48.466;7.950;2022-10-03T18:01:35;12.90;34.90
1137;DHT22;557;48.466;7.950;2022-10-03T18:04:30;12.90;51.10
1137;DHT22;557;48.466;7.950;2022-10-03T18:07:20;12.80;49.90
1137;DHT22;557;48.466;7.950;2022-10-03T18:10:18;12.70;63.50
1137;DHT22;557;48.466;7.950;2022-10-03T18:13:13;12.70;99.90
1137;DHT22;557;48.466;7.950;2022-10-03T18:16:12;12.60;99.90
1137;DHT22;557;48.466;7.950;2022-10-03T18:19:08;12.50;99.90
1137;DHT22;557;48.466;7.950;2022-10-03T18:22:12;12.50;99.90
1137;DHT22;557;48.466;7.950;2022-10-03T18:25:08;12.40;99.90
1137;DHT22;557;48.466;7.950;2022-10-03T18:28:16;12.20;99.90
1137;DHT22;557;48.466;7.950;2022-10-03T18:31:07;12.10;99.90
1137;DHT22;557;48.466;7.950;2022-10-03T18:33:56;12.10;99.90
1137;DHT22;557;48.466;7.950;2022-10-03T18:36:46;12.10;99.90
1137;DHT22;557;48.466;7.950;2022-10-03T18:39:35;11.90;99.90
1137;DHT22;557;48.466;7.950;2022-10-03T18:42:25;11.90;99.90
1137;DHT22;557;48.466;7.950;2022-10-03T18:45:17;11.80;99.90
1137;DHT22;557;48.466;7.950;2022-10-03T18:48:09;11.80;99.90
1137;DHT22;557;48.466;7.950;2022-10-03T18:51:01;11.80;99.90
1137;DHT22;557;48.466;7.950;2022-10-03T18:53:54;11.70;99.90
1137;DHT22;557;48.466;7.950;2022-10-03T18:56:42;11.60;99.90
1137;DHT22;557;48.466;7.950;2022-10-03T18:59:34;11.60;99.90
1137;DHT22;557;48.466;7.950;2022-10-03T19:02:25;11.60;99.90
1137;DHT22;557;48.466;7.950;2022-10-03T19:05:18;11.50;99.90
1137;DHT22;557;48.466;7.950;2022-10-03T19:08:09;11.50;99.90
1137;DHT22;557;48.466;7.950;2022-10-03T19:10:59;11.50;99.90
1137;DHT22;557;48.466;7.950;2022-10-03T19:13:56;11.40;99.90
1137;DHT22;557;48.466;7.950;2022-10-03T19:19:59;11.40;99.90
1137;DHT22;557;48.466;7.950;2022-10-03T19:22:53;11.40;99.90
1137;DHT22;557;48.466;7.950;2022-10-03T19:25:42;11.40;99.90
1137;DHT22;557;48.466;7.950;2022-10-03T19:28:30;11.40;99.90
1137;DHT22;557;48.466;7.950;2022-10-03T19:31:20;11.40;99.90
1137;DHT22;557;48.466;7.950;2022-10-03T19:34:13;11.30;99.90
1137;DHT22;557;48.466;7.950;2022-10-03T19:37:04;11.30;99.90
1137;DHT22;557;48.466;7.950;2022-10-03T19:39:52;11.30;99.90
1137;DHT22;557;48.466;7.950;2022-10-03T19:42:40;11.30;99.90
1137;DHT22;557;48.466;7.950;2022-10-03T19:45:27;11.30;99.90
1137;DHT22;557;48.466;7.950;2022-10-03T19:48:13;11.30;99.90
1137;DHT22;557;48.466;7.950;2022-10-03T19:51:08;11.20;99.90
1137;DHT22;557;48.466;7.950;2022-10-03T19:53:55;11.10;99.90
1137;DHT22;557;48.466;7.950;2022-10-03T19:56:41;11.10;99.90
1137;DHT22;557;48.466;7.950;2022-10-03T19:59:36;11.00;99.90
1137;DHT22;557;48.466;7.950;2022-10-03T20:02:27;10.90;99.90
1137;DHT22;557;48.466;7.950;2022-10-03T20:05:17;10.90;99.90
1137;DHT22;557;48.466;7.950;2022-10-03T20:08:15;10.90;99.90
1137;DHT22;557;48.466;7.950;2022-10-03T20:11:07;10.90;99.90
1137;DHT22;557;48.466;7.950;2022-10-03T20:13:59;10.80;99.90
1137;DHT22;557;48.466;7.950;2022-10-03T20:16:46;10.80;99.90
1137;DHT22;557;48.466;7.950;2022-10-03T20:19:35;10.80;99.90
1137;DHT22;557;48.466;7.950;2022-10-03T20:22:25;10.80;99.90
1137;DHT22;557;48.466;7.950;2022-10-03T20:25:21;10.70;99.90
1137;DHT22;557;48.466;7.950;2022-10-03T20:28:18;10.70;99.90
1137;DHT22;557;48.466;7.950;2022-10-03T20:31:04;10.70;99.90
1137;DHT22;557;48.466;7.950;2022-10-03T20:33:52;10.70;99.90
1137;DHT22;557;48.466;7.950;2022-10-03T20:36:39;10.60;99.90
1137;DHT22;557;48.466;7.950;2022-10-03T20:39:28;10.60;99.90
1137;DHT22;557;48.466;7.950;2022-10-03T20:42:19;10.60;99.90
1137;DHT22;557;48.466;7.950;2022-10-03T20:45:14;10.60;99.90
1137;DHT22;557;48.466;7.950;2022-10-03T20:48:05;10.60;99.90
1137;DHT22;557;48.466;7.950;2022-10-03T20:50:52;10.60;99.90
1137;DHT22;557;48.466;7.950;2022-10-03T20:53:41;10.50;99.90
1137;DHT22;557;48.466;7.950;2022-10-03T20:56:34;10.50;99.90
1137;DHT22;557;48.466;7.950;2022-10-03T20:59:34;10.50;99.90
1137;DHT22;557;48.466;7.950;2022-10-03T21:02:26;10.40;99.90
1137;DHT22;557;48.466;7.950;2022-10-03T21:05:19;10.40;99.90
1137;DHT22;557;48.466;7.950;2022-10-03T21:08:14;10.40;99.90
1137;DHT22;557;48.466;7.950;2022-10-03T21:11:14;10.30;99.90
1137;DHT22;557;48.466;7.950;2022-10-03T21:14:13;10.30;99.90
1137;DHT22;557;48.466;7.950;2022-10-03T21:17:02;10.30;99.90
1137;DHT22;557;48.466;7.950;2022-10-03T21:19:50;10.20;99.90
1137;DHT22;557;48.466;7.950;2022-10-03T21:22:37;10.20;99.90
1137;DHT22;557;48.466;7.950;2022-10-03T21:25:29;10.20;99.90
1137;DHT22;557;48.466;7.950;2022-10-03T21:28:23;10.10;99.90
1137;DHT22;557;48.466;7.950;2022-10-03T21:31:20;10.10;99.90
1137;DHT22;557;48.466;7.950;2022-10-03T21:34:18;10.10;99.90
1137;DHT22;557;48.466;7.950;2022-10-03T21:37:12;10.10;99.90
1137;DHT22;557;48.466;7.950;2022-10-03T21:43:16;10.00;99.90
1137;DHT22;557;48.466;7.950;2022-10-03T21:46:10;9.90;99.90
1137;DHT22;557;48.466;7.950;2022-10-03T21:49:24;9.80;99.90
1137;DHT22;557;48.466;7.950;2022-10-03T21:52:32;9.80;99.90
1137;DHT22;557;48.466;7.950;2022-10-03T21:55:36;9.80;99.90
1137;DHT22;557;48.466;7.950;2022-10-03T21:58:47;9.70;99.90
1137;DHT22;557;48.466;7.950;2022-10-03T22:01:41;9.60;99.90
1137;DHT22;557;48.466;7.950;2022-10-03T22:04:36;9.70;99.90
1137;DHT22;557;48.466;7.950;2022-10-03T22:07:32;9.60;99.90
1137;DHT22;557;48.466;7.950;2022-10-03T22:10:21;9.60;99.90
1137;DHT22;557;48.466;7.950;2022-10-03T22:13:08;9.50;99.90
1137;DHT22;557;48.466;7.950;2022-10-03T22:15:59;9.60;99.90
1137;DHT22;557;48.466;7.950;2022-10-03T22:19:10;9.50;99.90
1137;DHT22;557;48.466;7.950;2022-10-03T22:22:10;9.50;99.90
1137;DHT22;557;48.466;7.950;2022-10-03T22:28:16;9.50;99.90
1137;DHT22;557;48.466;7.950;2022-10-03T22:31:13;9.50;99.90
1137;DHT22;557;48.466;7.950;2022-10-03T22:34:10;9.50;99.90
1137;DHT22;557;48.466;7.950;2022-10-03T22:36:58;9.40;99.90